Time;durP1;ratioP1;P1;durP2;ratioP2;P2;SDS_P1;SDS_P2;PMS_P1;PMS_P2;Temp;Humidity;BMP_temperature;BMP_pressure;BME280_temperature;BME280_humidity;BME280_pressure;Samples;Min_cycle;Max_cycle;Signal;HPM_P1;HPM_P2
2022/07/14 00:01:12;;;;;;;3.53;2.70;;;;;;;31.27;46.61;101050.88;4198658;28;20032;-59
2022/07/14 00:03:13;;;;;;;2.88;2.17;;;;;;;31.22;46.69;101037.81;4207992;28;20526;-59
2022/07/14 00:05:18;;;;;;;3.00;2.80;;;;;;;31.27;46.46;101048.06;4215394;28;20097;-59
2022/07/14 00:07:19;;;;;;;2.78;2.53;;;;;;;31.20;46.67;101031.66;4215109;28;20040;-59
2022/07/14 00:09:29;;;;;;;2.80;2.60;;;;;;;31.27;46.48;101039.56;4212850;28;20094;-59
2022/07/14 00:11:33;;;;;;;2.70;2.50;;;;;;;31.25;46.48;101039.94;4215390;28;20044;-59
2022/07/14 00:13:35;;;;;;;;;;;;;;;31.26;46.42;101043.59;4206435;28;20036;-59
2022/07/14 00:15:36;;;;;;;3.03;2.28;;;;;;;31.31;46.57;101041.38;4186507;28;19959;-59
2022/07/14 00:17:37;;;;;;;5.63;2.47;;;;;;;31.32;46.49;101039.38;4181556;28;20103;-59
2022/07/14 00:19:39;;;;;;;3.38;3.08;;;;;;;31.30;46.36;101051.06;4181678;28;20151;-59
2022/07/14 00:21:40;;;;;;;2.70;2.50;;;;;;;31.30;46.65;101053.06;4181993;28;20024;-59
2022/07/14 00:23:45;;;;;;;2.95;2.65;;;;;;;31.22;46.51;101043.47;4207380;28;20040;-59
2022/07/14 00:25:46;;;;;;;3.10;2.90;;;;;;;31.28;46.59;101059.03;4215165;28;20039;-59
2022/07/14 00:27:48;;;;;;;2.75;2.55;;;;;;;31.26;46.72;101066.22;4214884;28;20040;-59
2022/07/14 00:29:53;;;;;;;2.80;2.60;;;;;;;31.27;46.50;101063.06;4214649;28;20048;-59
2022/07/14 00:31:54;;;;;;;4.35;2.28;;;;;;;31.27;46.63;101060.22;4214697;28;20101;-59
2022/07/14 00:33:55;;;;;;;2.85;2.65;;;;;;;31.26;46.51;101058.53;4214144;28;20101;-59
2022/07/14 00:35:57;;;;;;;3.05;2.67;;;;;;;31.28;46.65;101064.69;4214854;28;20094;-59
2022/07/14 00:38:03;;;;;;;2.60;2.40;;;;;;;31.28;46.51;101058.22;4214380;28;20032;-59
2022/07/14 00:40:07;;;;;;;2.80;2.50;;;;;;;31.27;46.48;101057.41;4214592;28;20040;-59
2022/07/14 00:42:08;;;;;;;3.00;2.63;;;;;;;31.27;46.86;101056.53;4214895;28;20048;-59
2022/07/14 00:44:10;;;;;;;2.90;2.65;;;;;;;31.23;46.75;101056.41;4198086;28;20052;-59
2022/07/14 00:46:11;;;;;;;3.60;2.80;;;;;;;31.28;46.52;101069.53;4197894;28;20480;-59
2022/07/14 00:48:13;;;;;;;2.83;2.63;;;;;;;31.28;46.57;101070.34;4197954;28;20040;-59
2022/07/14 00:50:16;;;;;;;3.00;2.72;;;;;;;31.28;46.75;101069.53;4197552;28;20045;-59
2022/07/14 00:52:18;;;;;;;5.70;2.60;;;;;;;31.27;46.54;101074.34;4194905;28;20542;-58
2022/07/14 00:54:29;;;;;;;5.53;2.85;;;;;;;31.27;46.75;101080.00;4181390;28;20115;-59
2022/07/14 00:56:30;;;;;;;4.72;3.28;;;;;;;31.28;46.78;101081.66;4181304;28;20102;-59
2022/07/14 00:58:34;;;;;;;5.78;2.65;;;;;;;31.24;46.87;101080.66;4181321;28;20037;-59
2022/07/14 01:00:39;;;;;;;6.05;2.80;;;;;;;31.28;46.57;101080.84;4181724;28;20037;-59
2022/07/14 01:02:43;;;;;;;3.47;2.80;;;;;;;31.26;46.74;101080.34;4187139;28;20040;-59
2022/07/14 01:04:46;;;;;;;4.78;3.28;;;;;;;31.28;46.78;101086.50;4214190;28;20097;-59
2022/07/14 01:06:50;;;;;;;3.97;3.53;;;;;;;31.27;46.71;101096.13;4211921;28;20464;-59
2022/07/14 01:08:54;;;;;;;5.22;3.00;;;;;;;31.27;46.67;101102.63;4214187;28;20036;-59
2022/07/14 01:10:55;;;;;;;4.17;2.83;;;;;;;31.29;46.50;101102.28;4214133;28;20101;-59
2022/07/14 01:13:04;;;;;;;5.03;2.90;;;;;;;31.28;46.73;101103.44;4209945;28;20335;-59
2022/07/14 01:15:06;;;;;;;3.45;3.08;;;;;;;31.27;46.54;101108.28;4197023;28;20108;-59
2022/07/14 01:17:10;;;;;;;3.03;2.75;;;;;;;31.28;46.68;101104.28;4197558;28;20086;-59
2022/07/14 01:19:12;;;;;;;3.22;2.72;;;;;;;31.18;46.69;101093.38;4197379;28;20537;-59
2022/07/14 01:21:13;;;;;;;3.80;2.83;;;;;;;31.27;46.83;101105.47;4199786;28;20036;-59
2022/07/14 01:23:15;;;;;;;3.03;2.72;;;;;;;31.28;46.75;101115.59;4214148;28;20467;-59
2022/07/14 01:25:18;;;;;;;3.42;3.13;;;;;;;31.26;46.80;101123.56;4213858;28;20089;-58
2022/07/14 01:27:19;;;;;;;4.90;3.10;;;;;;;31.26;46.78;101129.22;4198024;28;20090;-59
2022/07/14 01:29:21;;;;;;;4.63;2.83;;;;;;;31.23;46.40;101129.91;4196444;28;20054;-58
2022/07/14 01:31:22;;;;;;;3.72;2.90;;;;;;;31.26;46.52;101140.53;4201230;28;20036;-58
2022/07/14 01:33:26;;;;;;;3.33;2.88;;;;;;;31.26;46.62;101134.88;4213791;28;20120;-58
2022/07/14 01:35:28;;;;;;;6.15;3.10;;;;;;;31.27;46.79;101141.34;4216917;28;20077;-57
2022/07/14 01:37:32;;;;;;;4.75;3.30;;;;;;;31.27;46.67;101150.69;4208856;28;20094;-59
2022/07/14 01:39:33;;;;;;;4.13;3.10;;;;;;;31.25;47.05;101147.38;4202843;28;20048;-59
2022/07/14 01:41:35;;;;;;;3.30;3.00;;;;;;;31.27;46.71;101147.88;4208339;28;20040;-58
2022/07/14 01:43:36;;;;;;;4.45;2.90;;;;;;;31.26;46.80;101151.84;4219742;28;20036;-60
2022/07/14 01:45:38;;;;;;;3.28;2.97;;;;;;;31.27;46.52;101155.50;4219410;28;20421;-59
2022/07/14 01:47:40;;;;;;;4.75;2.60;;;;;;;31.26;46.82;101153.84;4207314;28;20090;-59
2022/07/14 01:49:44;;;;;;;4.28;3.35;;;;;;;31.26;46.52;101168.81;4202181;28;20045;-59
2022/07/14 01:51:48;;;;;;;3.95;3.22;;;;;;;31.26;46.66;101168.81;4209140;28;20039;-59
2022/07/14 01:53:58;;;;;;;3.47;2.70;;;;;;;31.21;46.45;101166.19;4219349;28;20429;-59
2022/07/14 01:56:00;;;;;;;3.70;3.30;;;;;;;31.27;46.47;101173.31;4219433;28;20540;-59
2022/07/14 01:58:02;;;;;;;5.15;3.72;;;;;;;31.26;46.44;101174.47;4218429;28;20032;-58
2022/07/14 02:00:04;;;;;;;4.72;3.00;;;;;;;31.27;46.58;101172.47;4212932;28;20109;-59
2022/07/14 02:02:08;;;;;;;3.47;3.17;;;;;;;31.18;46.59;101160.41;4192339;28;20045;-59
2022/07/14 02:04:12;;;;;;;4.15;3.42;;;;;;;31.26;46.88;101180.13;4193560;28;20553;-59
2022/07/14 02:06:14;;;;;;;6.90;3.35;;;;;;;31.20;46.71;101164.53;4201958;28;20041;-58
2022/07/14 02:08:15;;;;;;;7.35;3.38;;;;;;;31.25;46.54;101178.47;4195098;28;20048;-59
2022/07/14 02:12:36;;;;;;;4.47;3.42;;;;;;;31.25;46.66;101172.81;4220097;28;20101;-59
2022/07/14 02:14:47;;;;;;;9.75;3.80;;;;;;;31.25;46.46;101170.00;4219699;28;20101;-59
2022/07/14 02:16:48;;;;;;;5.28;3.15;;;;;;;31.20;46.77;101170.16;4218361;28;20105;-59
2022/07/14 02:18:50;;;;;;;3.85;3.20;;;;;;;31.25;46.75;101169.13;4219189;28;20040;-59
2022/07/14 02:20:57;;;;;;;4.85;3.53;;;;;;;31.25;46.59;101180.44;4206866;28;20044;-59
2022/07/14 02:22:58;;;;;;;5.53;3.30;;;;;;;31.25;46.80;101181.31;4202795;28;20105;-59
2022/07/14 02:25:00;;;;;;;6.60;3.70;;;;;;;31.24;46.50;101176.78;4202400;28;20094;-59
2022/07/14 02:27:04;;;;;;;5.25;3.30;;;;;;;31.24;46.35;101171.13;4202692;28;20446;-59
2022/07/14 02:29:08;;;;;;;4.43;3.15;;;;;;;31.23;46.55;101169.50;4202553;28;20028;-58
2022/07/14 02:31:09;;;;;;;4.60;3.65;;;;;;;31.17;46.59;101159.59;4216944;28;20032;-59
2022/07/14 02:33:14;;;;;;;5.53;3.58;;;;;;;31.24;46.64;101175.97;4218971;28;20044;-59
2022/07/14 02:35:16;;;;;;;3.72;3.30;;;;;;;31.24;46.59;101165.47;4202497;28;20094;-59
2022/07/14 02:37:19;;;;;;;7.38;3.75;;;;;;;31.24;46.55;101171.13;4202645;28;20475;-59
2022/07/14 02:39:21;;;;;;;5.57;3.60;;;;;;;31.23;46.46;101158.19;4202306;28;20041;-59
2022/07/14 02:41:28;;;;;;;6.32;3.85;;;;;;;31.23;46.58;101157.34;4217628;28;20036;-59
2022/07/14 02:43:31;;;;;;;5.03;3.60;;;;;;;31.22;46.49;101156.53;4219371;28;20048;-59
2022/07/14 02:45:32;;;;;;;5.57;4.45;;;;;;;31.24;46.38;101153.34;4219208;28;20106;-58
2022/07/14 02:47:34;;;;;;;4.15;3.58;;;;;;;31.23;46.66;101152.53;4216409;28;20044;-59
2022/07/14 02:49:35;;;;;;;8.23;3.92;;;;;;;31.21;46.48;101142.75;4215478;28;20368;-59
2022/07/14 02:51:39;;;;;;;6.50;4.07;;;;;;;31.23;46.54;101152.53;4199389;28;20044;-58
2022/07/14 02:53:40;;;;;;;4.90;3.83;;;;;;;31.22;46.69;101145.22;4199810;28;20110;-59
2022/07/14 02:55:41;;;;;;;5.53;3.85;;;;;;;31.15;46.68;101139.28;4210611;28;20062;-59
2022/07/14 02:57:43;;;;;;;5.72;3.83;;;;;;;31.23;46.70;101148.88;4216606;28;20448;-59
2022/07/14 02:59:44;;;;;;;5.80;3.53;;;;;;;31.23;46.68;101146.06;4216335;28;20081;-59
2022/07/14 03:01:49;;;;;;;7.00;3.67;;;;;;;31.18;46.46;101138.59;4216031;28;20044;-59
2022/07/14 03:03:50;;;;;;;5.38;3.80;;;;;;;31.22;46.37;101139.56;4216680;28;20077;-59
2022/07/14 03:05:51;;;;;;;5.03;3.83;;;;;;;31.22;46.69;101139.56;4214437;28;20100;-59
2022/07/14 03:07:53;;;;;;;4.38;3.78;;;;;;;31.22;46.54;101133.91;4216087;28;20039;-59
2022/07/14 03:09:57;;;;;;;4.40;3.85;;;;;;;31.21;46.50;101126.63;4215767;28;20125;-59
2022/07/14 03:11:58;;;;;;;5.18;3.80;;;;;;;31.22;46.41;101133.09;4216387;28;20047;-59
2022/07/14 03:14:00;;;;;;;7.28;4.28;;;;;;;31.20;46.58;101129.78;4216090;28;20044;-59
2022/07/14 03:16:02;;;;;;;8.02;4.20;;;;;;;31.22;46.77;101135.94;4215415;28;20097;-59
2022/07/14 03:18:04;;;;;;;7.15;5.05;;;;;;;31.21;46.51;101131.44;4216168;28;20040;-59
2022/07/14 03:20:07;;;;;;;7.88;4.63;;;;;;;31.22;46.62;101133.09;4215563;28;20093;-59
2022/07/14 03:22:11;;;;;;;6.57;3.90;;;;;;;31.14;46.57;101115.84;4215978;28;20549;-59
2022/07/14 03:24:15;;;;;;;7.65;4.10;;;;;;;31.21;46.74;101132.28;4216146;28;20048;-59
2022/07/14 03:26:16;;;;;;;7.22;3.95;;;;;;;31.21;46.64;101135.09;4216094;28;20036;-59
2022/07/14 03:28:21;;;;;;;6.63;3.95;;;;;;;31.18;46.43;101132.13;4215839;28;20044;-58
2022/07/14 03:30:22;;;;;;;;;;;;;;;31.20;46.37;101138.25;4215983;28;20097;-59
2022/07/14 03:32:23;;;;;;;5.10;3.53;;;;;;;31.25;46.35;101140.88;4216103;28;19916;-60
2022/07/14 03:34:24;;;;;;;4.03;3.47;;;;;;;31.24;46.32;101137.22;4215836;28;20097;-59
2022/07/14 03:36:28;;;;;;;5.38;3.75;;;;;;;31.23;46.44;101135.56;4199665;28;20040;-59
2022/07/14 03:38:30;;;;;;;4.72;3.53;;;;;;;31.22;46.43;101139.56;4198601;28;20096;-59
2022/07/14 03:40:34;;;;;;;4.53;3.72;;;;;;;31.23;46.47;101140.41;4199305;28;20032;-58
2022/07/14 03:42:36;;;;;;;5.38;4.18;;;;;;;31.21;46.41;101143.59;4198889;28;20042;-59
2022/07/14 03:44:37;;;;;;;6.25;3.85;;;;;;;31.18;46.77;101132.97;4199516;28;20464;-58
2022/07/14 03:46:38;;;;;;;5.65;4.10;;;;;;;31.19;46.68;101137.44;4215813;28;20036;-57
2022/07/14 03:48:40;;;;;;;6.57;3.75;;;;;;;31.21;46.41;101137.09;4215230;28;20101;-58
2022/07/14 03:50:41;;;;;;;5.97;4.28;;;;;;;31.20;46.59;101135.44;4215358;28;20044;-58
2022/07/14 03:52:45;;;;;;;6.03;4.38;;;;;;;31.19;46.38;101128.13;4215443;28;20121;-58
2022/07/14 03:54:47;;;;;;;6.22;3.75;;;;;;;31.19;46.54;101134.59;4213101;28;20032;-58
2022/07/14 03:56:51;;;;;;;6.38;4.10;;;;;;;31.19;46.66;101140.25;4198989;28;20036;-58
2022/07/14 03:58:52;;;;;;;5.60;3.53;;;;;;;31.19;46.59;101145.91;4197493;28;20553;-58
2022/07/14 04:00:54;;;;;;;4.45;4.05;;;;;;;31.20;46.75;101138.25;4198603;28;20086;-58
2022/07/14 04:02:55;;;;;;;4.00;3.42;;;;;;;31.15;46.43;101130.81;4198853;28;20098;-58
2022/07/14 04:04:57;;;;;;;5.97;4.13;;;;;;;31.18;46.40;101132.97;4201184;28;20040;-58
2022/07/14 04:06:58;;;;;;;5.28;3.65;;;;;;;31.18;46.46;101129.31;4215407;28;20032;-58
2022/07/14 04:09:00;;;;;;;5.63;3.65;;;;;;;31.18;46.58;101130.13;4214909;28;20044;-58
2022/07/14 04:11:02;;;;;;;5.10;3.90;;;;;;;31.18;46.66;101132.13;4215082;28;20097;-58
2022/07/14 04:13:06;;;;;;;4.90;3.67;;;;;;;31.11;46.50;101124.19;4214341;28;20044;-58
2022/07/14 04:15:08;;;;;;;5.22;3.85;;;;;;;31.17;46.67;101134.13;4198673;28;20041;-58
2022/07/14 04:17:10;;;;;;;6.07;4.22;;;;;;;31.17;46.51;101136.97;4198603;28;20086;-58
2022/07/14 04:19:11;;;;;;;4.95;4.22;;;;;;;31.17;46.42;101139.78;4197978;28;20094;-57
2022/07/14 04:21:12;;;;;;;6.30;3.95;;;;;;;31.17;46.42;101131.31;4199601;28;20134;-58
2022/07/14 04:23:13;;;;;;;5.07;3.80;;;;;;;31.16;46.40;101140.97;4198168;28;20102;-58
2022/07/14 04:25:15;;;;;;;7.60;3.75;;;;;;;31.16;46.68;101140.97;4198365;28;20093;-58
2022/07/14 04:27:17;;;;;;;4.75;3.88;;;;;;;31.16;46.61;101135.31;4198393;28;20040;-58
2022/07/14 04:29:18;;;;;;;5.80;3.65;;;;;;;31.11;46.68;101129.84;4197771;28;20150;-58
2022/07/14 04:31:19;;;;;;;4.85;3.85;;;;;;;31.15;46.47;101133.63;4212530;28;20442;-58
2022/07/14 04:33:27;;;;;;;5.03;3.42;;;;;;;31.14;46.55;101127.16;4214557;28;20036;-58
2022/07/14 04:35:31;;;;;;;6.95;3.70;;;;;;;31.15;46.44;101136.47;4214694;28;20040;-59
2022/07/14 04:37:34;;;;;;;4.95;3.78;;;;;;;31.17;46.70;101131.31;4214779;28;20109;-58
2022/07/14 04:39:40;;;;;;;4.18;3.50;;;;;;;31.16;46.54;101132.50;4214353;28;20070;-58
2022/07/14 04:41:42;;;;;;;4.10;3.70;;;;;;;31.16;46.52;101129.66;4181654;28;20041;-58
2022/07/14 04:43:43;;;;;;;5.10;3.75;;;;;;;31.16;46.59;101135.31;4181567;28;20041;-58
2022/07/14 04:45:48;;;;;;;4.95;3.88;;;;;;;31.16;46.66;101134.47;4181648;28;20045;-58
2022/07/14 04:47:49;;;;;;;4.35;3.60;;;;;;;31.14;46.73;101132.00;4181820;28;20087;-58
2022/07/14 04:52:11;;;;;;;6.35;4.32;;;;;;;31.16;46.63;101135.31;4215291;28;20081;-58
2022/07/14 04:54:13;;;;;;;5.10;3.90;;;;;;;31.13;46.59;101136.00;4214749;28;20048;-58
2022/07/14 04:56:14;;;;;;;5.60;3.70;;;;;;;31.14;46.88;101137.66;4214876;28;20442;-58
2022/07/14 04:58:16;;;;;;;4.60;3.60;;;;;;;31.15;46.61;101136.47;4214214;28;20035;-58
2022/07/14 05:00:17;;;;;;;8.45;4.00;;;;;;;31.11;46.51;101138.34;4214913;28;20113;-58
2022/07/14 05:02:19;;;;;;;4.72;3.75;;;;;;;31.15;46.70;101133.63;4214523;28;20040;-58
2022/07/14 05:04:23;;;;;;;4.95;3.80;;;;;;;31.14;46.51;101132.00;4205680;28;20090;-57
2022/07/14 05:06:24;;;;;;;7.10;3.67;;;;;;;31.14;46.72;101137.66;4197858;28;20101;-57
2022/07/14 05:08:25;;;;;;;7.35;3.88;;;;;;;31.14;46.47;101138.47;4197568;28;20037;-58
2022/07/14 05:10:27;;;;;;;4.88;3.80;;;;;;;31.13;46.63;101134.00;4197210;28;20033;-58
2022/07/14 05:12:31;;;;;;;5.05;3.58;;;;;;;31.13;46.41;101133.19;4197816;28;20102;-58
2022/07/14 05:14:32;;;;;;;6.55;3.97;;;;;;;31.14;46.79;101137.66;4206550;28;20553;-58
2022/07/14 05:16:37;;;;;;;4.72;3.67;;;;;;;31.09;46.68;101130.22;4202365;28;20438;-57
2022/07/14 05:18:39;;;;;;;4.80;3.88;;;;;;;31.14;46.85;101134.81;4196709;28;20090;-58
2022/07/14 05:20:40;;;;;;;4.57;3.40;;;;;;;31.13;46.47;101138.81;4197743;28;20037;-58
2022/07/14 05:22:42;;;;;;;5.55;4.15;;;;;;;31.15;46.84;101133.63;4197806;28;20037;-58
2022/07/14 05:24:44;;;;;;;4.07;3.67;;;;;;;31.07;46.71;101121.25;4197675;28;20476;-58
2022/07/14 05:26:48;;;;;;;5.05;3.90;;;;;;;31.13;46.47;101127.53;4210063;28;20085;-58
2022/07/14 05:28:50;;;;;;;4.32;3.85;;;;;;;31.14;46.51;101126.34;4214195;28;20040;-58
2022/07/14 05:30:57;;;;;;;4.30;3.90;;;;;;;31.13;46.63;101119.03;4214344;28;20036;-58
2022/07/14 05:32:59;;;;;;;5.45;3.97;;;;;;;31.10;46.48;101119.72;4214046;28;20051;-58
2022/07/14 05:35:00;;;;;;;4.55;4.10;;;;;;;31.13;46.59;101125.53;4214433;28;20036;-58
2022/07/14 05:37:01;;;;;;;5.28;3.90;;;;;;;31.12;46.67;101117.41;4199283;28;20044;-58
2022/07/14 05:39:03;;;;;;;4.65;3.33;;;;;;;31.11;46.80;101116.56;4197232;28;20113;-58
2022/07/14 05:41:04;;;;;;;4.15;3.75;;;;;;;31.12;46.67;101123.88;4197650;28;20033;-58
2022/07/14 05:43:06;;;;;;;6.25;3.70;;;;;;;31.13;46.49;101130.34;4197668;28;20028;-58
2022/07/14 05:45:08;;;;;;;5.90;4.28;;;;;;;31.12;46.47;101128.69;4197562;28;20033;-58
2022/07/14 05:47:09;;;;;;;4.18;3.78;;;;;;;31.13;46.52;101124.69;4212829;28;20093;-58
2022/07/14 05:49:10;;;;;;;4.88;3.85;;;;;;;31.11;46.67;101115.72;4213522;28;20053;-57
2022/07/14 05:51:15;;;;;;;5.78;3.70;;;;;;;31.12;46.67;101120.22;4213497;28;20445;-57
2022/07/14 05:53:16;;;;;;;;;;;;;;;31.09;46.55;101121.72;4214395;28;20109;-58
2022/07/14 05:55:17;;;;;;;4.68;3.88;;;;;;;31.15;46.47;101122.34;4214140;28;19995;-57
2022/07/14 05:57:19;;;;;;;3.70;3.40;;;;;;;31.08;46.46;101113.59;4197940;28;20044;-58
2022/07/14 05:59:21;;;;;;;4.43;4.03;;;;;;;31.14;46.45;101132.00;4197121;28;20040;-58
2022/07/14 06:01:22;;;;;;;4.38;3.97;;;;;;;31.13;46.65;101133.19;4197712;28;20089;-58
2022/07/14 06:03:24;;;;;;;4.30;3.38;;;;;;;31.08;46.76;101133.41;4196973;28;20421;-57
2022/07/14 06:05:25;;;;;;;5.32;4.00;;;;;;;31.06;46.78;101132.91;4197331;28;20045;-58
2022/07/14 06:07:26;;;;;;;4.63;3.70;;;;;;;31.11;46.53;101138.34;4180785;28;20098;-59
2022/07/14 06:09:28;;;;;;;4.50;3.67;;;;;;;31.11;46.61;101138.34;4180496;28;20473;-58
2022/07/14 06:11:32;;;;;;;4.63;3.33;;;;;;;31.10;46.77;101134.69;4180722;28;20123;-58
2022/07/14 06:13:35;;;;;;;4.38;3.97;;;;;;;31.10;46.56;101129.03;4180779;28;20570;-58
2022/07/14 06:15:37;;;;;;;5.32;3.67;;;;;;;31.06;46.51;101122.41;4182699;28;20037;-58
2022/07/14 06:17:38;;;;;;;3.85;3.40;;;;;;;31.09;46.74;101123.72;4213369;28;20043;-58
2022/07/14 06:19:39;;;;;;;3.70;3.40;;;;;;;31.10;46.63;101133.84;4213271;28;20040;-58
2022/07/14 06:21:41;;;;;;;3.40;3.10;;;;;;;31.10;46.60;101128.19;4214018;28;20040;-58
2022/07/14 06:23:45;;;;;;;7.43;4.20;;;;;;;31.09;46.77;101124.56;4217259;28;20036;-58
2022/07/14 06:25:52;;;;;;;4.05;3.60;;;;;;;31.10;46.61;101131.03;4214676;28;20094;-58
2022/07/14 06:28:00;;;;;;;4.20;3.80;;;;;;;31.06;46.57;101118.75;4200410;28;20045;-58
2022/07/14 06:30:06;;;;;;;4.80;3.65;;;;;;;31.02;46.79;101114.97;4198736;28;20074;-58
2022/07/14 06:32:08;;;;;;;4.07;3.67;;;;;;;31.10;46.61;101136.69;4200094;28;20052;-58
2022/07/14 06:34:12;;;;;;;4.03;3.60;;;;;;;31.09;46.64;101133.03;4201752;28;20468;-58
2022/07/14 06:36:13;;;;;;;4.18;3.75;;;;;;;31.09;46.59;101137.88;4217720;28;20043;-58
2022/07/14 06:38:15;;;;;;;3.70;3.40;;;;;;;31.10;46.49;101143.16;4217172;28;20032;-58
2022/07/14 06:40:20;;;;;;;6.80;3.60;;;;;;;31.03;46.67;101130.78;4216741;28;20497;-57
2022/07/14 06:42:21;;;;;;;3.70;3.33;;;;;;;31.10;46.89;101139.50;4216922;28;20036;-58
2022/07/14 06:44:22;;;;;;;4.50;3.92;;;;;;;31.10;46.82;101136.69;4216117;28;20169;-57
2022/07/14 06:46:27;;;;;;;4.45;4.05;;;;;;;31.04;46.47;101126.78;4216496;28;20093;-57
2022/07/14 06:48:29;;;;;;;3.60;3.30;;;;;;;31.08;46.90;101134.22;4216488;28;20040;-58
2022/07/14 06:50:30;;;;;;;4.35;3.75;;;;;;;31.09;46.69;101137.88;4216444;28;20039;-58
2022/07/14 06:52:31;;;;;;;4.10;3.72;;;;;;;31.08;46.65;101128.56;4215959;28;20043;-58
2022/07/14 06:54:33;;;;;;;5.88;4.15;;;;;;;31.08;46.72;101136.22;4211278;28;20044;-60
2022/07/14 06:56:37;;;;;;;4.35;3.80;;;;;;;31.03;46.57;101123.13;4199617;28;20048;-58
2022/07/14 06:58:41;;;;;;;4.80;3.80;;;;;;;31.08;46.74;101134.22;4199802;28;20372;-58
2022/07/14 07:00:42;;;;;;;4.10;3.80;;;;;;;31.07;46.44;101132.56;4199847;28;20040;-58
2022/07/14 07:02:44;;;;;;;4.32;3.92;;;;;;;31.08;46.75;101133.41;4199635;28;20036;-58
2022/07/14 07:04:47;;;;;;;4.38;3.97;;;;;;;31.04;46.67;101116.28;4205246;28;20040;-58
2022/07/14 07:06:51;;;;;;;4.20;3.80;;;;;;;31.07;46.73;101126.09;4216144;28;20453;-58
2022/07/14 07:08:52;;;;;;;4.30;3.85;;;;;;;31.07;46.48;101120.44;4215744;28;20032;-58
2022/07/14 07:10:56;;;;;;;3.60;3.30;;;;;;;31.07;46.53;101126.09;4215899;28;20089;-58
2022/07/14 07:13:01;;;;;;;4.10;3.67;;;;;;;31.07;46.71;101126.09;4216382;28;20040;-58
2022/07/14 07:15:03;;;;;;;4.20;3.47;;;;;;;31.08;46.59;101116.44;4207855;28;20032;-58
2022/07/14 07:17:04;;;;;;;3.90;3.47;;;;;;;31.07;46.83;101114.78;4199575;28;20040;-57
2022/07/14 07:19:08;;;;;;;4.50;3.95;;;;;;;31.04;46.84;101101.34;4199164;28;20102;-57
2022/07/14 07:21:12;;;;;;;4.05;3.67;;;;;;;31.03;46.75;101102.53;4199586;28;20044;-57
2022/07/14 07:23:14;;;;;;;5.40;3.80;;;;;;;31.07;46.78;101111.97;4199396;28;20138;-58
2022/07/14 07:25:15;;;;;;;4.38;3.30;;;;;;;31.07;46.45;101109.97;4209204;28;20036;-59
2022/07/14 07:27:16;;;;;;;4.95;4.30;;;;;;;31.07;46.73;101109.13;4216031;28;20040;-59
2022/07/14 07:29:18;;;;;;;4.80;4.30;;;;;;;31.07;46.62;101114.78;4216193;28;20073;-59
2022/07/14 07:31:20;;;;;;;4.10;3.70;;;;;;;31.03;46.78;101105.34;4215763;28;20109;-59
2022/07/14 07:33:21;;;;;;;3.72;3.20;;;;;;;31.06;46.69;101107.47;4215433;28;20471;-59
2022/07/14 07:35:23;;;;;;;3.60;3.30;;;;;;;31.03;46.67;101103.34;4204667;28;20040;-59
2022/07/14 07:37:24;;;;;;;4.25;3.55;;;;;;;31.06;46.59;101113.09;4199199;28;20045;-59
2022/07/14 07:39:25;;;;;;;4.72;3.83;;;;;;;31.06;46.74;101107.47;4198662;28;20041;-59
2022/07/14 07:41:27;;;;;;;5.82;3.65;;;;;;;31.05;46.54;101105.81;4199262;28;20044;-58
2022/07/14 07:43:28;;;;;;;3.65;3.35;;;;;;;30.96;46.69;101090.94;4199184;28;20094;-58
2022/07/14 07:45:32;;;;;;;4.65;3.97;;;;;;;31.05;46.56;101111.47;4200757;28;20036;-58
2022/07/14 07:47:39;;;;;;;4.10;3.70;;;;;;;31.06;46.67;101115.94;4198721;28;20472;-58
2022/07/14 07:49:41;;;;;;;4.85;3.88;;;;;;;31.05;46.65;101117.94;4198892;28;20029;-58
2022/07/14 07:51:42;;;;;;;3.67;3.30;;;;;;;31.06;46.82;101111.09;4198792;28;20048;-58
2022/07/14 07:53:52;;;;;;;4.05;3.75;;;;;;;31.05;46.77;101108.63;4198767;28;20075;-58
2022/07/14 07:55:56;;;;;;;4.28;3.88;;;;;;;31.05;46.51;101105.81;4212826;28;20443;-59
2022/07/14 07:57:59;;;;;;;4.03;3.67;;;;;;;31.05;46.60;101105.81;4215881;28;20417;-58
2022/07/14 08:00:00;;;;;;;4.38;3.97;;;;;;;31.02;46.81;101103.66;4215082;28;20040;-58
2022/07/14 08:02:01;;;;;;;3.85;3.55;;;;;;;31.06;46.76;101118.75;4215626;28;20487;-58
2022/07/14 08:04:03;;;;;;;4.00;3.65;;;;;;;31.05;46.81;101117.13;4215512;28;20048;-59
2022/07/14 08:06:04;;;;;;;5.05;3.75;;;;;;;31.04;46.72;101116.28;4214868;28;20095;-57
2022/07/14 08:08:08;;;;;;;4.40;3.70;;;;;;;31.03;46.78;101116.66;4215250;28;20061;-58
2022/07/14 08:10:09;;;;;;;3.78;3.40;;;;;;;31.04;46.67;101121.13;4214013;28;20453;-58
2022/07/14 08:12:11;;;;;;;3.75;3.38;;;;;;;31.04;46.78;101118.28;4215210;28;20082;-58
2022/07/14 08:16:32;;;;;;;3.92;3.58;;;;;;;31.06;46.93;101113.09;4182257;28;20091;-58
2022/07/14 08:18:33;;;;;;;5.15;3.80;;;;;;;31.04;46.68;101107.81;4181723;28;20063;-58
2022/07/14 08:20:35;;;;;;;4.30;3.88;;;;;;;31.05;46.90;101105.81;4182032;28;20427;-58
2022/07/14 08:22:37;;;;;;;4.03;3.72;;;;;;;31.05;46.72;101111.47;4182197;28;20037;-58
2022/07/14 08:24:39;;;;;;;4.40;4.00;;;;;;;31.05;46.72;101115.13;4186460;28;20098;-58
2022/07/14 08:26:41;;;;;;;3.70;3.40;;;;;;;31.05;46.70;101111.47;4198541;28;20430;-58
2022/07/14 08:28:45;;;;;;;4.20;3.38;;;;;;;31.04;46.95;101115.47;4198479;28;20044;-58
2022/07/14 08:30:46;;;;;;;3.28;3.03;;;;;;;31.04;46.72;101115.47;4198153;28;20086;-58
2022/07/14 08:32:50;;;;;;;4.30;3.88;;;;;;;31.02;46.60;101120.63;4197866;28;20442;-57
2022/07/14 08:34:52;;;;;;;3.87;3.57;;;;;;;31.04;46.58;101121.13;4202998;28;20446;-58
2022/07/14 08:36:53;;;;;;;4.78;3.97;;;;;;;31.05;46.52;101128.41;4214801;28;20277;-58
2022/07/14 08:38:54;;;;;;;4.30;3.90;;;;;;;31.04;46.70;101133.25;4214315;28;20039;-57
2022/07/14 08:40:56;;;;;;;4.90;3.58;;;;;;;31.04;46.87;101130.44;4214790;28;20434;-58
2022/07/14 08:42:57;;;;;;;3.70;3.40;;;;;;;31.04;46.81;101121.13;4215036;28;20528;-58
2022/07/14 08:44:59;;;;;;;4.97;3.85;;;;;;;31.03;46.62;101128.78;4208294;28;20048;-58
2022/07/14 08:47:02;;;;;;;4.18;3.78;;;;;;;31.04;46.74;101123.94;4198032;28;20040;-58
2022/07/14 08:49:06;;;;;;;4.07;3.65;;;;;;;31.03;46.59;101119.47;4197479;28;20036;-58
2022/07/14 08:51:08;;;;;;;4.38;3.95;;;;;;;31.03;46.51;101116.66;4197634;28;20040;-58
2022/07/14 08:53:12;;;;;;;4.20;3.80;;;;;;;31.04;46.57;101123.94;4197731;28;20098;-58
2022/07/14 08:55:18;;;;;;;4.07;3.78;;;;;;;31.03;46.47;101125.13;4204950;28;20487;-58
2022/07/14 08:57:21;;;;;;;3.95;3.65;;;;;;;31.03;46.53;101122.31;4214513;28;20062;-58
2022/07/14 08:59:23;;;;;;;4.13;3.60;;;;;;;31.03;46.72;101122.31;4213417;28;20035;-58
2022/07/14 09:01:27;;;;;;;3.67;3.38;;;;;;;30.91;46.89;101110.94;4214355;28;20662;-57
2022/07/14 09:03:28;;;;;;;5.03;4.15;;;;;;;31.03;46.81;101119.47;4208229;28;20185;-57
2022/07/14 09:05:31;;;;;;;4.50;4.10;;;;;;;31.00;46.79;101120.16;4197961;28;20030;-58
2022/07/14 09:07:35;;;;;;;5.65;4.30;;;;;;;31.03;46.80;101130.78;4197859;28;20094;-58
2022/07/14 09:09:38;;;;;;;4.95;3.65;;;;;;;31.03;46.57;101130.78;4197687;28;20090;-58
2022/07/14 09:11:55;;;;;;;3.40;3.10;;;;;;;31.00;46.61;101125.81;4197382;28;20048;-58
2022/07/14 09:14:13;;;;;;;4.10;3.70;;;;;;;31.02;46.49;101129.09;4206995;28;20097;-58
2022/07/14 09:16:23;;;;;;;3.80;3.38;;;;;;;31.00;46.57;101125.81;4214590;28;20036;-58
2022/07/14 09:18:28;;;;;;;4.13;3.72;;;;;;;31.03;46.85;101122.31;4214260;28;20467;-58
2022/07/14 09:20:34;;;;;;;4.10;3.67;;;;;;;31.03;46.79;101130.78;4214277;28;20047;-58
2022/07/14 09:22:40;;;;;;;4.05;3.75;;;;;;;31.03;46.62;101130.78;4214245;28;20032;-58
2022/07/14 09:24:51;;;;;;;3.78;3.38;;;;;;;31.00;46.58;101135.09;4198129;28;20036;-58
2022/07/14 09:26:56;;;;;;;4.03;3.60;;;;;;;31.02;46.83;101129.97;4197820;28;20032;-58
2022/07/14 09:28:57;;;;;;;4.28;3.88;;;;;;;31.02;46.81;101140.41;4197473;28;20049;-58
2022/07/14 09:31:18;;;;;;;4.07;3.78;;;;;;;31.00;46.52;101137.13;4197413;28;20036;-58
2022/07/14 09:33:19;;;;;;;4.38;3.97;;;;;;;31.01;46.62;101138.75;4197659;28;20041;-58
2022/07/14 09:35:29;;;;;;;4.18;3.80;;;;;;;31.00;46.64;101142.75;4197681;28;20450;-58
2022/07/14 09:37:30;;;;;;;3.63;3.33;;;;;;;31.01;46.76;101150.06;4197031;28;20098;-59
2022/07/14 09:39:32;;;;;;;4.28;3.88;;;;;;;31.01;46.96;101144.41;4197033;28;20102;-58